Terminal Aerodrome Forecast
Issued by NWS St Louis, MO

Home | Current Version | Previous Version | Text Only | Print | Product List | Glossary On
Versions: 1 2 3 4 5 6 7 8 9
957
FTUS43 KLSX 221129
TAFCOU
TAF
KCOU 221129Z 2212/2312 03012KT P6SM -SHRA OVC040
     FM222000 03013G20KT P6SM OVC090
     FM230100 02009KT P6SM BKN130=

USA.gov is the U.S. government's official web portal to all federal, state and local government web resources and services.